Time;durP1;ratioP1;P1;durP2;ratioP2;P2;SDS_P1;SDS_P2;PMS_P1;PMS_P2;Temp;Humidity;BMP_temperature;BMP_pressure;BME280_temperature;BME280_humidity;BME280_pressure;Samples;Min_cycle;Max_cycle;Signal;HPM_P1;HPM_P2
2023/02/28 00:01:34;;;;;;;5.30;3.67;;;-1.50;74.40;;;;;;5052974;28;20227;-69
2023/02/28 00:04:01;;;;;;;4.82;3.53;;;-1.50;74.40;;;;;;5053282;28;20270;-68
2023/02/28 00:06:30;;;;;;;4.80;3.10;;;-1.50;74.30;;;;;;5052965;28;20202;-68
2023/02/28 00:08:57;;;;;;;6.30;4.05;;;-1.50;74.30;;;;;;5052993;28;20194;-68
2023/02/28 00:11:23;;;;;;;4.85;3.30;;;-1.60;74.40;;;;;;5053066;28;20313;-68
2023/02/28 00:13:50;;;;;;;7.38;4.18;;;-1.60;74.60;;;;;;5053093;28;20233;-68
2023/02/28 00:16:20;;;;;;;4.78;3.70;;;-1.60;74.70;;;;;;5052841;28;20191;-69
2023/02/28 00:18:48;;;;;;;7.35;3.72;;;-1.60;74.50;;;;;;5052709;28;20281;-69
2023/02/28 00:21:15;;;;;;;8.38;3.80;;;-1.60;74.50;;;;;;5052901;28;20285;-68
2023/02/28 00:23:43;;;;;;;5.03;3.50;;;-1.70;74.30;;;;;;5052884;28;20278;-69
2023/02/28 00:26:11;;;;;;;5.88;3.40;;;-1.70;73.70;;;;;;5052980;28;20222;-69
2023/02/28 00:28:38;;;;;;;6.03;3.55;;;-1.70;73.50;;;;;;5053285;28;20198;-68
2023/02/28 00:31:05;;;;;;;4.47;3.33;;;-1.80;73.50;;;;;;5052778;28;20240;-68
2023/02/28 00:33:32;;;;;;;5.50;3.60;;;-1.90;73.90;;;;;;5052610;28;20202;-68
2023/02/28 00:36:04;;;;;;;5.60;4.18;;;-1.90;74.10;;;;;;5052803;28;20200;-68
2023/02/28 00:38:32;;;;;;;4.20;3.08;;;-1.90;74.60;;;;;;5052900;28;20540;-68
2023/02/28 00:41:04;;;;;;;12.63;4.03;;;-2.00;75.00;;;;;;5052582;28;20285;-68
2023/02/28 00:43:32;;;;;;;4.68;2.33;;;-2.10;74.30;;;;;;5052989;28;20672;-68
2023/02/28 00:45:59;;;;;;;7.38;3.67;;;-2.10;74.20;;;;;;5052711;28;20182;-68
2023/02/28 00:48:26;;;;;;;7.40;4.43;;;-2.20;74.30;;;;;;5052753;28;20191;-68
2023/02/28 00:50:53;;;;;;;4.00;2.95;;;-2.20;73.90;;;;;;5052434;28;20191;-68
2023/02/28 00:53:20;;;;;;;5.07;4.18;;;-2.20;73.60;;;;;;5052706;28;20195;-68
2023/02/28 00:55:47;;;;;;;5.32;3.35;;;-2.30;73.40;;;;;;5052613;28;20521;-69
2023/02/28 00:58:15;;;;;;;5.05;3.60;;;-2.40;73.60;;;;;;5052572;28;20225;-68
2023/02/28 01:00:42;;;;;;;11.18;4.43;;;-2.50;73.50;;;;;;5052371;28;20297;-69
2023/02/28 01:03:09;;;;;;;8.10;4.05;;;-2.50;74.30;;;;;;5052524;28;20283;-69
2023/02/28 01:05:36;;;;;;;6.40;4.80;;;-2.50;74.10;;;;;;5052541;28;20328;-68
2023/02/28 01:08:03;;;;;;;8.32;4.47;;;-2.50;74.20;;;;;;5052510;28;20285;-68
2023/02/28 01:10:31;;;;;;;9.20;5.13;;;-2.60;73.60;;;;;;5052594;28;20225;-69
2023/02/28 01:12:58;;;;;;;5.00;4.03;;;-2.60;73.90;;;;;;5051944;28;20229;-68
2023/02/28 01:15:26;;;;;;;7.65;5.03;;;-2.60;74.40;;;;;;5052460;28;20186;-69
2023/02/28 01:17:53;;;;;;;9.35;4.80;;;-2.70;74.40;;;;;;5052518;28;20293;-69
2023/02/28 01:20:20;;;;;;;6.03;4.78;;;-2.70;73.90;;;;;;5052511;28;20198;-68
2023/02/28 01:22:47;;;;;;;7.65;5.60;;;-2.80;74.70;;;;;;5052307;28;20191;-68
2023/02/28 01:25:14;;;;;;;12.55;6.60;;;-2.80;73.90;;;;;;5052181;28;20627;-69
2023/02/28 01:27:41;;;;;;;8.10;4.75;;;-2.90;74.50;;;;;;5052515;28;20232;-70
2023/02/28 01:30:10;;;;;;;7.50;4.57;;;-2.90;74.50;;;;;;5052606;28;20198;-69
2023/02/28 01:32:38;;;;;;;12.43;5.30;;;-3.00;74.30;;;;;;5052445;28;20259;-69
2023/02/28 01:35:06;;;;;;;7.07;4.20;;;-3.00;74.10;;;;;;5052427;28;20226;-69
2023/02/28 01:37:33;;;;;;;9.45;5.10;;;-3.00;73.90;;;;;;5052341;28;20601;-69
2023/02/28 01:39:59;;;;;;;10.07;6.43;;;-3.10;74.40;;;;;;5052364;28;20195;-69
2023/02/28 01:42:26;;;;;;;7.88;5.95;;;-3.10;74.70;;;;;;5052229;28;20237;-69
2023/02/28 01:45:04;;;;;;;9.77;5.93;;;-3.10;75.00;;;;;;5052308;28;20252;-69
2023/02/28 01:47:34;;;;;;;8.27;5.97;;;-3.10;75.00;;;;;;5052366;28;20248;-70
2023/02/28 01:50:06;;;;;;;7.03;5.05;;;-3.20;74.40;;;;;;5052058;28;20281;-69
2023/02/28 01:52:33;;;;;;;8.63;4.97;;;-3.30;73.80;;;;;;5052218;28;20309;-69
2023/02/28 01:55:02;;;;;;;6.93;4.82;;;-3.30;73.70;;;;;;5052265;28;20290;-68
2023/02/28 01:57:37;;;;;;;9.85;4.90;;;-3.30;73.70;;;;;;5052161;28;20596;-69
2023/02/28 02:00:09;;;;;;;8.30;5.50;;;-3.40;74.00;;;;;;5052275;28;20670;-68
2023/02/28 02:02:37;;;;;;;6.95;4.68;;;-3.40;74.20;;;;;;5051829;28;20222;-69
2023/02/28 02:05:07;;;;;;;9.52;5.43;;;-3.40;74.60;;;;;;5052717;28;20285;-69
2023/02/28 02:07:38;;;;;;;7.75;5.10;;;-3.50;74.60;;;;;;5055591;28;20230;-69
2023/02/28 02:10:11;;;;;;;9.68;5.22;;;-3.50;74.90;;;;;;5055543;28;20252;-68
2023/02/28 02:13:02;;;;;;;6.97;5.40;;;-3.60;75.30;;;;;;5055718;28;20769;-69
2023/02/28 02:15:35;;;;;;;6.70;4.32;;;-3.60;75.30;;;;;;5055113;28;20195;-68
2023/02/28 02:18:11;;;;;;;9.48;3.80;;;-3.60;75.00;;;;;;5055202;28;20364;-69
2023/02/28 02:21:15;;;;;;;6.65;4.93;;;-3.70;74.70;;;;;;5055905;28;20213;-69
2023/02/28 02:24:18;;;;;;;8.23;5.45;;;-3.70;74.80;;;;;;5048084;28;20248;-70
2023/02/28 02:27:09;;;;;;;6.30;3.80;;;-3.70;75.20;;;;;;5046089;28;20218;-69
2023/02/28 02:29:59;;;;;;;7.90;4.22;;;-3.70;75.20;;;;;;5051754;28;20191;-68
2023/02/28 02:33:03;;;;;;;7.82;4.55;;;-3.80;75.50;;;;;;5055292;28;20272;-69
2023/02/28 02:35:35;;;;;;;7.38;4.30;;;-3.80;75.80;;;;;;5045317;28;20194;-68
2023/02/28 02:38:09;;;;;;;6.25;4.32;;;-3.90;74.40;;;;;;5054992;28;20277;-68
2023/02/28 02:40:55;;;;;;;5.18;3.60;;;-3.90;75.00;;;;;;5055229;28;20281;-68
2023/02/28 02:43:30;;;;;;;4.75;3.50;;;-3.90;75.40;;;;;;5055022;28;20284;-68
2023/02/28 02:46:00;;;;;;;5.53;4.30;;;-4.00;74.70;;;;;;5054835;28;20577;-68
2023/02/28 02:48:31;;;;;;;5.50;4.00;;;-4.00;74.70;;;;;;5054848;28;20186;-69
2023/02/28 02:51:05;;;;;;;7.50;4.60;;;-4.00;75.00;;;;;;5055005;28;20202;-68
2023/02/28 02:53:38;;;;;;;4.80;3.70;;;-4.10;75.90;;;;;;5054560;28;20638;-68
2023/02/28 02:56:06;;;;;;;8.02;4.68;;;-4.10;76.10;;;;;;5054900;28;20228;-68
2023/02/28 02:58:41;;;;;;;6.70;4.47;;;-4.10;75.60;;;;;;5054530;28;20285;-68
2023/02/28 03:01:11;;;;;;;5.50;4.05;;;-4.20;75.70;;;;;;5054495;28;20198;-68
2023/02/28 03:03:38;;;;;;;5.78;3.97;;;-4.20;76.20;;;;;;5054620;28;20281;-68
2023/02/28 03:06:08;;;;;;;4.45;3.33;;;-4.20;76.30;;;;;;5054721;28;21059;-68
2023/02/28 03:08:37;;;;;;;4.80;3.28;;;-4.20;75.90;;;;;;5054512;28;20203;-68
2023/02/28 03:11:07;;;;;;;5.43;3.83;;;-4.20;76.10;;;;;;5054578;28;20715;-68
2023/02/28 03:13:53;;;;;;;5.78;4.18;;;-4.30;74.60;;;;;;5054295;28;20705;-68
2023/02/28 03:17:14;;;;;;;12.07;4.30;;;-4.30;74.80;;;;;;5053253;28;20263;-68
2023/02/28 03:19:52;;;;;;;7.80;3.78;;;-4.30;74.70;;;;;;5025486;28;20245;-68
2023/02/28 03:22:50;;;;;;;5.47;3.83;;;-4.40;74.70;;;;;;5054079;28;20194;-68
2023/02/28 03:25:23;;;;;;;8.27;5.05;;;-4.50;75.30;;;;;;5052115;28;20277;-68
2023/02/28 03:28:01;;;;;;;6.93;4.95;;;-4.50;75.50;;;;;;5054111;28;20633;-69
2023/02/28 03:30:41;;;;;;;5.65;2.95;;;-4.50;75.60;;;;;;5054104;28;20198;-68
2023/02/28 03:33:14;;;;;;;5.75;3.95;;;-4.50;74.10;;;;;;5054193;28;20221;-68
2023/02/28 03:35:44;;;;;;;5.20;3.92;;;-4.50;73.70;;;;;;5053918;28;20771;-69
2023/02/28 03:38:18;;;;;;;5.28;3.47;;;-4.50;73.90;;;;;;5054194;28;20190;-69
2023/02/28 03:40:49;;;;;;;4.95;3.85;;;-4.50;73.90;;;;;;5054068;28;20194;-69
2023/02/28 03:43:23;;;;;;;6.65;4.05;;;-4.60;73.80;;;;;;5053863;28;20280;-68
2023/02/28 03:45:52;;;;;;;3.97;3.15;;;-4.60;73.80;;;;;;5053722;28;20282;-69
2023/02/28 03:48:24;;;;;;;5.68;4.07;;;-4.60;74.30;;;;;;5053680;28;20602;-70
2023/02/28 03:50:55;;;;;;;6.15;4.22;;;-4.60;73.90;;;;;;5053781;28;20578;-67
2023/02/28 03:53:28;;;;;;;7.00;4.03;;;-4.70;73.70;;;;;;5053387;28;20229;-68
2023/02/28 03:56:00;;;;;;;5.43;4.65;;;-4.70;74.80;;;;;;5053672;28;20229;-69
2023/02/28 03:58:31;;;;;;;5.70;4.35;;;-4.70;75.20;;;;;;5053528;28;20178;-68
2023/02/28 04:01:07;;;;;;;5.07;3.85;;;-4.70;75.00;;;;;;5052995;28;20186;-67
2023/02/28 04:03:36;;;;;;;6.28;4.05;;;-4.70;75.20;;;;;;5053437;28;20197;-69
2023/02/28 04:06:03;;;;;;;7.60;5.35;;;-4.70;75.30;;;;;;5053510;28;20272;-69
2023/02/28 04:08:32;;;;;;;5.78;4.82;;;-4.80;76.40;;;;;;5053429;28;20202;-68
2023/02/28 04:11:02;;;;;;;7.95;4.72;;;-4.80;76.80;;;;;;5053409;28;20289;-68
2023/02/28 04:13:29;;;;;;;6.63;4.90;;;-4.80;76.90;;;;;;5053051;28;20760;-69
2023/02/28 04:15:56;;;;;;;6.25;4.88;;;-4.80;77.60;;;;;;5053374;28;20193;-68
2023/02/28 04:18:23;;;;;;;7.00;5.43;;;-4.80;78.30;;;;;;5052677;28;20195;-69
2023/02/28 04:20:50;;;;;;;5.90;3.75;;;-4.70;78.90;;;;;;5053105;28;20530;-69
2023/02/28 04:23:17;;;;;;;5.95;4.30;;;-4.70;78.80;;;;;;5052936;28;20202;-69
2023/02/28 04:25:45;;;;;;;6.28;4.78;;;-4.70;77.80;;;;;;5053465;28;20187;-69
2023/02/28 04:28:12;;;;;;;7.10;4.55;;;-4.80;76.90;;;;;;5052793;28;20281;-69
2023/02/28 04:30:40;;;;;;;8.48;5.20;;;-4.80;76.70;;;;;;5053210;28;20186;-69
2023/02/28 04:33:07;;;;;;;5.63;4.30;;;-4.80;76.30;;;;;;5052829;28;20218;-68
2023/02/28 04:35:34;;;;;;;6.40;4.28;;;-4.90;75.80;;;;;;5053154;28;20202;-69
2023/02/28 04:38:01;;;;;;;8.93;5.45;;;-4.90;76.10;;;;;;5052634;28;20285;-68
2023/02/28 04:40:27;;;;;;;10.32;5.60;;;-4.90;75.50;;;;;;5052991;28;20263;-68
2023/02/28 04:42:56;;;;;;;8.85;5.03;;;-4.90;75.50;;;;;;5052666;28;20545;-68
2023/02/28 04:45:23;;;;;;;10.43;5.93;;;-4.90;76.00;;;;;;5052831;28;20645;-68
2023/02/28 04:47:50;;;;;;;8.80;5.38;;;-4.90;76.10;;;;;;5052834;28;20285;-68
2023/02/28 04:50:17;;;;;;;7.75;4.45;;;-4.90;76.20;;;;;;5052755;28;20277;-70
2023/02/28 04:52:44;;;;;;;5.97;4.25;;;-4.90;76.60;;;;;;5052585;28;20214;-68
2023/02/28 04:55:11;;;;;;;7.28;4.97;;;-4.90;76.40;;;;;;5052813;28;20592;-70
2023/02/28 04:57:38;;;;;;;9.57;4.60;;;-4.90;76.10;;;;;;5052747;28;20226;-68
2023/02/28 05:00:11;;;;;;;8.57;5.88;;;-4.90;75.80;;;;;;5052694;28;20270;-68
2023/02/28 05:02:39;;;;;;;7.10;5.03;;;-5.00;76.20;;;;;;5052471;28;20609;-69
2023/02/28 05:05:06;;;;;;;7.78;5.55;;;-4.90;76.50;;;;;;5052879;28;20526;-68
2023/02/28 05:07:33;;;;;;;7.15;5.15;;;-5.00;76.30;;;;;;5052314;28;20591;-68
2023/02/28 05:10:00;;;;;;;7.43;4.72;;;-5.00;76.40;;;;;;5052632;28;20230;-69
2023/02/28 05:12:27;;;;;;;7.97;5.43;;;-5.00;76.20;;;;;;5052428;28;20190;-69
2023/02/28 05:14:54;;;;;;;7.32;4.97;;;-4.90;75.80;;;;;;5052432;28;20198;-68
2023/02/28 05:17:22;;;;;;;8.07;4.28;;;-4.90;75.40;;;;;;5052512;28;20636;-69
2023/02/28 05:19:49;;;;;;;7.85;5.07;;;-4.90;75.60;;;;;;5052537;28;20695;-69
2023/02/28 05:22:17;;;;;;;7.82;5.30;;;-4.90;75.50;;;;;;5052399;28;20281;-69
2023/02/28 05:24:44;;;;;;;10.25;5.82;;;-4.90;75.40;;;;;;5052132;28;20197;-68
2023/02/28 05:27:11;;;;;;;10.43;5.88;;;-4.90;74.30;;;;;;5052478;28;20197;-70
2023/02/28 05:29:41;;;;;;;10.98;5.90;;;-4.90;74.10;;;;;;5052313;28;20710;-69
2023/02/28 05:32:11;;;;;;;6.40;4.65;;;-4.90;73.90;;;;;;5052562;28;20198;-68
2023/02/28 05:34:40;;;;;;;9.88;6.00;;;-4.90;74.50;;;;;;5052029;28;20225;-67
2023/02/28 05:37:11;;;;;;;8.15;5.32;;;-4.90;75.10;;;;;;5052002;28;20194;-69
2023/02/28 05:39:38;;;;;;;11.50;6.35;;;-4.90;75.10;;;;;;5052622;28;20301;-69
2023/02/28 05:42:06;;;;;;;11.13;7.70;;;-4.90;74.60;;;;;;5051268;28;20270;-69
2023/02/28 05:44:33;;;;;;;10.68;7.05;;;-4.80;74.80;;;;;;5054143;28;20187;-68
2023/02/28 05:47:00;;;;;;;10.32;6.10;;;-4.80;75.10;;;;;;5054737;28;20210;-69
2023/02/28 05:49:27;;;;;;;9.13;6.70;;;-4.70;75.30;;;;;;5066645;28;20182;-68
2023/02/28 05:51:56;;;;;;;13.70;7.10;;;-4.70;75.10;;;;;;5060080;28;20210;-69
2023/02/28 05:54:23;;;;;;;9.48;5.78;;;-4.60;75.10;;;;;;5053563;28;20222;-69
2023/02/28 05:56:50;;;;;;;10.85;8.60;;;-4.60;75.70;;;;;;5051610;28;20194;-70
2023/02/28 05:59:18;;;;;;;6.80;5.30;;;-4.50;76.40;;;;;;5060711;28;20186;-69
2023/02/28 06:01:47;;;;;;;11.13;6.60;;;-4.40;76.60;;;;;;5061604;28;20307;-69
2023/02/28 06:04:17;;;;;;;9.32;7.00;;;-4.30;76.80;;;;;;5074358;28;20229;-69
2023/02/28 06:06:45;;;;;;;9.70;6.13;;;-4.30;77.30;;;;;;5034699;28;20209;-69
2023/02/28 06:09:14;;;;;;;7.82;5.75;;;-4.20;78.00;;;;;;5060558;28;20247;-69
2023/02/28 06:11:43;;;;;;;9.88;5.43;;;-4.10;78.00;;;;;;5063308;28;20501;-69
2023/02/28 06:14:16;;;;;;;6.50;5.38;;;-4.10;78.10;;;;;;5054740;28;20368;-68
2023/02/28 06:16:44;;;;;;;7.93;5.90;;;-4.00;78.10;;;;;;5064161;28;20269;-68
2023/02/28 06:19:12;;;;;;;6.95;5.55;;;-4.00;78.30;;;;;;5062567;28;20187;-68
2023/02/28 06:21:40;;;;;;;8.52;6.13;;;-3.90;78.20;;;;;;5063140;28;20217;-68
2023/02/28 06:24:08;;;;;;;13.23;7.50;;;-3.90;77.80;;;;;;5065996;28;20183;-68
2023/02/28 06:26:36;;;;;;;8.30;5.53;;;-3.70;77.80;;;;;;5054704;28;20187;-69
2023/02/28 06:29:03;;;;;;;15.50;9.50;;;-3.70;77.70;;;;;;5057759;28;20794;-68
2023/02/28 06:31:31;;;;;;;12.15;7.95;;;-3.60;77.70;;;;;;5072209;28;20239;-68
2023/02/28 06:33:58;;;;;;;13.38;7.68;;;-3.50;78.90;;;;;;5068017;28;20218;-68
2023/02/28 06:36:25;;;;;;;14.05;8.52;;;-3.40;79.90;;;;;;5054449;28;20602;-69
2023/02/28 06:38:55;;;;;;;14.98;9.20;;;-3.20;80.30;;;;;;5058557;28;20185;-69
2023/02/28 06:41:23;;;;;;;17.65;9.20;;;-3.00;81.40;;;;;;5053968;28;20208;-69
2023/02/28 06:43:52;;;;;;;16.08;8.43;;;-2.90;82.20;;;;;;5068424;28;20243;-70
2023/02/28 06:46:20;;;;;;;12.05;8.38;;;-2.80;83.00;;;;;;5074558;28;20194;-70
2023/02/28 06:48:47;;;;;;;16.05;9.85;;;-2.70;83.20;;;;;;5071150;28;20190;-69
2023/02/28 06:51:16;;;;;;;18.30;10.65;;;-2.50;83.10;;;;;;5059478;28;20193;-69
2023/02/28 06:53:43;;;;;;;12.75;9.70;;;-2.40;82.80;;;;;;5075267;28;20213;-69
2023/02/28 06:56:12;;;;;;;16.23;9.50;;;-2.30;82.80;;;;;;5066620;28;20248;-68
2023/02/28 06:58:40;;;;;;;10.85;7.38;;;-2.20;82.40;;;;;;5063083;28;20240;-68
2023/02/28 07:01:09;;;;;;;13.75;8.90;;;-2.10;81.70;;;;;;5064818;28;20181;-68
2023/02/28 07:03:37;;;;;;;14.70;9.50;;;-2.00;81.30;;;;;;5074429;28;20201;-68
2023/02/28 07:06:05;;;;;;;13.95;9.65;;;-1.80;80.70;;;;;;5066952;28;20229;-68
2023/02/28 07:08:32;;;;;;;15.18;10.23;;;-1.60;79.70;;;;;;5050925;28;20298;-69
2023/02/28 07:11:00;;;;;;;12.90;8.60;;;-1.60;79.40;;;;;;5053462;28;20285;-68
2023/02/28 07:13:27;;;;;;;14.15;9.18;;;-1.50;79.80;;;;;;5053554;28;20249;-69
2023/02/28 07:15:55;;;;;;;15.20;9.50;;;-1.40;79.10;;;;;;5053821;28;20222;-69
2023/02/28 07:18:24;;;;;;;15.30;10.50;;;-1.30;79.10;;;;;;5053541;28;20511;-72
2023/02/28 07:20:51;;;;;;;18.80;9.80;;;-1.20;78.30;;;;;;5053052;28;20285;-68
2023/02/28 07:23:18;;;;;;;14.80;9.25;;;-1.10;77.80;;;;;;5039455;28;20238;-71
2023/02/28 07:25:46;;;;;;;13.65;9.45;;;-1.10;77.50;;;;;;5053056;28;20240;-69
2023/02/28 07:28:13;;;;;;;11.07;7.95;;;-1.10;77.50;;;;;;5053412;28;20389;-69
2023/02/28 07:30:41;;;;;;;15.80;10.93;;;-1.10;77.30;;;;;;5053327;28;20197;-68
2023/02/28 07:33:08;;;;;;;14.00;9.35;;;-1.10;76.60;;;;;;5053682;28;20611;-69
2023/02/28 07:35:36;;;;;;;15.30;9.43;;;-1.10;76.80;;;;;;5052455;28;20308;-69
2023/02/28 07:38:04;;;;;;;15.63;9.32;;;-1.00;76.40;;;;;;5052707;28;20271;-68
2023/02/28 07:40:31;;;;;;;13.73;10.18;;;-0.90;76.00;;;;;;5053514;28;20195;-68
2023/02/28 07:43:00;;;;;;;16.95;9.80;;;-0.90;75.80;;;;;;5053394;28;20221;-68
2023/02/28 07:45:28;;;;;;;12.77;10.07;;;-0.80;76.20;;;;;;5053334;28;20269;-68
2023/02/28 07:47:55;;;;;;;14.50;9.70;;;-0.80;75.80;;;;;;5049055;28;20191;-68
2023/02/28 07:50:22;;;;;;;13.82;7.80;;;-0.70;76.20;;;;;;5053179;28;20237;-68
2023/02/28 07:52:51;;;;;;;11.00;8.05;;;-0.70;76.40;;;;;;5052849;28;20613;-69
2023/02/28 07:55:18;;;;;;;12.02;8.95;;;-0.60;75.80;;;;;;5053170;28;20604;-68
2023/02/28 07:57:45;;;;;;;15.38;9.48;;;-0.50;75.70;;;;;;5052948;28;20237;-69
2023/02/28 08:00:13;;;;;;;13.85;8.60;;;-0.40;74.70;;;;;;5052270;28;20202;-69
2023/02/28 08:02:40;;;;;;;13.50;8.80;;;-0.40;74.20;;;;;;5052559;28;20254;-68
2023/02/28 08:05:08;;;;;;;12.98;10.10;;;-0.40;74.10;;;;;;5053263;28;20228;-68
2023/02/28 08:07:35;;;;;;;13.30;9.27;;;-0.30;73.30;;;;;;5053411;28;20278;-69
2023/02/28 08:10:05;;;;;;;15.55;10.27;;;-0.30;73.00;;;;;;5053407;28;20187;-69
2023/02/28 08:12:32;;;;;;;14.38;9.20;;;-0.20;73.30;;;;;;5053334;28;20669;-68
2023/02/28 08:14:59;;;;;;;13.05;8.63;;;-0.20;73.00;;;;;;5053264;28;20619;-69
2023/02/28 08:17:26;;;;;;;14.13;9.30;;;-0.20;72.60;;;;;;5053092;28;20281;-68
2023/02/28 08:19:53;;;;;;;15.10;9.57;;;-0.20;72.70;;;;;;5053197;28;20223;-68
2023/02/28 08:22:20;;;;;;;14.20;9.35;;;-0.10;72.60;;;;;;5052889;28;20233;-68
2023/02/28 08:24:47;;;;;;;12.70;8.68;;;-0.10;72.30;;;;;;5053156;28;20236;-68
2023/02/28 08:27:15;;;;;;;14.10;11.02;;;0.00;71.40;;;;;;5052732;28;20245;-69
2023/02/28 08:29:42;;;;;;;16.35;9.85;;;0.00;71.70;;;;;;5053208;28;20332;-68
2023/02/28 08:32:09;;;;;;;12.27;9.25;;;0.10;70.90;;;;;;5052838;28;20231;-69
2023/02/28 08:34:36;;;;;;;20.27;9.10;;;0.10;71.30;;;;;;5052555;28;20317;-68
2023/02/28 08:37:03;;;;;;;13.88;10.32;;;0.10;71.30;;;;;;5052270;28;20623;-69
2023/02/28 08:39:29;;;;;;;16.10;9.23;;;0.10;70.80;;;;;;5052961;28;20287;-69
2023/02/28 08:41:56;;;;;;;18.17;11.10;;;0.10;70.60;;;;;;5052804;28;20193;-69
2023/02/28 08:44:25;;;;;;;12.65;9.35;;;0.10;71.00;;;;;;5053013;28;20298;-68
2023/02/28 08:46:51;;;;;;;13.10;9.50;;;0.20;71.30;;;;;;5052937;28;20286;-69
2023/02/28 08:49:18;;;;;;;13.98;9.77;;;0.20;70.90;;;;;;5052931;28;20630;-69
2023/02/28 08:51:45;;;;;;;14.65;10.77;;;0.20;70.80;;;;;;5052988;28;20229;-69
2023/02/28 08:54:14;;;;;;;12.02;10.15;;;0.30;70.00;;;;;;5052649;28;20310;-71
2023/02/28 08:56:41;;;;;;;15.93;10.95;;;0.30;70.00;;;;;;5052985;28;20278;-70
2023/02/28 08:59:10;;;;;;;16.08;10.70;;;0.30;70.40;;;;;;5052335;28;20280;-68
2023/02/28 09:01:38;;;;;;;17.15;10.90;;;0.30;69.90;;;;;;5052269;28;20260;-68
2023/02/28 09:04:08;;;;;;;16.52;10.85;;;0.40;70.10;;;;;;5052857;28;20274;-69
2023/02/28 09:06:35;;;;;;;12.77;9.18;;;0.40;70.10;;;;;;5052758;28;20764;-69
2023/02/28 09:09:04;;;;;;;18.77;11.13;;;0.50;69.70;;;;;;5052965;28;20286;-68
2023/02/28 09:11:31;;;;;;;12.52;9.02;;;0.50;69.80;;;;;;5052534;28;20727;-68
2023/02/28 09:14:00;;;;;;;15.85;11.35;;;0.60;69.80;;;;;;5053394;28;20226;-68
2023/02/28 09:16:27;;;;;;;13.63;10.18;;;0.60;70.00;;;;;;5056929;28;20231;-68
2023/02/28 09:18:55;;;;;;;15.05;10.20;;;0.60;69.70;;;;;;5056845;28;20225;-68
2023/02/28 09:21:22;;;;;;;16.85;10.48;;;0.70;69.60;;;;;;5056997;28;20279;-69
2023/02/28 09:23:51;;;;;;;15.18;10.65;;;0.80;69.40;;;;;;5056623;28;20233;-68
2023/02/28 09:26:19;;;;;;;14.32;10.55;;;0.90;69.10;;;;;;5056503;28;20622;-70
2023/02/28 09:28:47;;;;;;;16.30;11.27;;;0.90;69.00;;;;;;5056471;28;20278;-70
2023/02/28 09:31:15;;;;;;;14.68;11.00;;;1.00;69.40;;;;;;5056579;28;20279;-69
2023/02/28 09:33:42;;;;;;;15.80;10.98;;;1.10;68.60;;;;;;5056468;28;20228;-68
2023/02/28 09:36:11;;;;;;;16.00;10.95;;;1.20;68.10;;;;;;5056608;28;20204;-68
2023/02/28 09:38:38;;;;;;;13.85;9.95;;;1.30;67.70;;;;;;5056513;28;20288;-68
2023/02/28 09:41:12;;;;;;;14.43;9.77;;;1.30;67.40;;;;;;5056365;28;20219;-68
2023/02/28 09:43:41;;;;;;;15.48;10.55;;;1.40;67.20;;;;;;5056398;28;20282;-69
2023/02/28 09:46:19;;;;;;;15.68;11.07;;;1.40;66.70;;;;;;5056514;28;20197;-68
2023/02/28 09:48:48;;;;;;;10.60;8.25;;;1.50;66.00;;;;;;5056370;28;20231;-69
2023/02/28 09:51:33;;;;;;;16.40;10.32;;;1.50;65.70;;;;;;5056286;28;20196;-69
2023/02/28 09:54:01;;;;;;;14.93;10.18;;;1.60;65.40;;;;;;5055929;28;20223;-68
2023/02/28 09:56:33;;;;;;;17.13;12.55;;;1.50;65.60;;;;;;5056056;28;20289;-69
2023/02/28 09:59:06;;;;;;;15.93;11.90;;;1.60;65.90;;;;;;5055596;28;20228;-68
2023/02/28 10:01:40;;;;;;;18.77;12.48;;;1.60;65.90;;;;;;5055595;28;20264;-69
2023/02/28 10:04:15;;;;;;;16.10;10.93;;;1.70;65.20;;;;;;5055896;28;20378;-68
2023/02/28 10:06:47;;;;;;;21.63;11.45;;;1.70;65.40;;;;;;5055581;28;20287;-69
2023/02/28 10:09:20;;;;;;;16.33;11.00;;;1.80;65.10;;;;;;5056295;28;20201;-69
2023/02/28 10:11:49;;;;;;;17.13;12.07;;;1.90;64.80;;;;;;5055884;28;20312;-68
2023/02/28 10:14:20;;;;;;;15.77;10.65;;;2.00;64.80;;;;;;5055539;28;20253;-68
2023/02/28 10:16:51;;;;;;;15.32;10.25;;;2.00;64.10;;;;;;5055657;28;20282;-69
2023/02/28 10:19:22;;;;;;;15.95;11.02;;;2.00;64.00;;;;;;5055740;28;20259;-69
2023/02/28 10:21:57;;;;;;;16.95;11.25;;;2.10;63.70;;;;;;5055563;28;20590;-69
2023/02/28 10:24:29;;;;;;;14.27;11.00;;;2.10;63.80;;;;;;5055409;28;20197;-69
2023/02/28 10:27:01;;;;;;;14.82;11.00;;;2.20;63.30;;;;;;5054395;28;20685;-68
2023/02/28 10:29:32;;;;;;;14.05;11.35;;;2.20;62.80;;;;;;5055465;28;20197;-69
2023/02/28 10:32:03;;;;;;;16.30;11.82;;;2.20;62.80;;;;;;5055535;28;20280;-69
2023/02/28 10:34:30;;;;;;;14.13;11.30;;;2.20;63.10;;;;;;5055204;28;20210;-68
2023/02/28 10:37:07;;;;;;;15.68;11.10;;;2.20;62.20;;;;;;5054850;28;20284;-69
2023/02/28 10:39:42;;;;;;;16.02;10.90;;;2.20;62.00;;;;;;5055221;28;20204;-68
2023/02/28 10:42:22;;;;;;;16.02;11.15;;;2.20;62.10;;;;;;5055082;28;20624;-69
2023/02/28 10:44:49;;;;;;;16.40;12.02;;;2.30;62.50;;;;;;5054756;28;20186;-69
2023/02/28 10:47:18;;;;;;;17.50;10.98;;;2.30;62.00;;;;;;5054684;28;20240;-69
2023/02/28 10:49:49;;;;;;;15.60;10.85;;;2.30;62.00;;;;;;5055091;28;20197;-69
2023/02/28 10:52:34;;;;;;;16.05;10.93;;;2.30;62.50;;;;;;5054604;28;20204;-69
2023/02/28 10:55:17;;;;;;;16.45;11.50;;;2.40;62.10;;;;;;5054853;28;20237;-68
2023/02/28 10:57:44;;;;;;;16.42;11.75;;;2.40;62.20;;;;;;5054972;28;20193;-69
2023/02/28 11:00:18;;;;;;;18.88;12.90;;;2.40;61.70;;;;;;5051748;28;20716;-68
2023/02/28 11:02:46;;;;;;;17.08;12.90;;;2.40;61.70;;;;;;5058922;28;20598;-69
2023/02/28 11:05:26;;;;;;;16.10;11.82;;;2.50;61.80;;;;;;5061936;28;20209;-68
2023/02/28 11:07:56;;;;;;;19.42;12.25;;;2.50;62.20;;;;;;5074646;28;20200;-69
2023/02/28 11:10:34;;;;;;;17.40;11.88;;;2.60;61.50;;;;;;5074483;28;20295;-69
2023/02/28 11:13:03;;;;;;;17.15;12.95;;;2.60;61.80;;;;;;5074692;28;20712;-68
2023/02/28 11:15:32;;;;;;;19.77;12.02;;;2.70;61.40;;;;;;5073612;28;20221;-70
2023/02/28 11:18:03;;;;;;;18.55;11.15;;;2.70;60.30;;;;;;5073657;28;20285;-68
2023/02/28 11:20:33;;;;;;;23.60;12.95;;;2.60;60.30;;;;;;5074515;28;20662;-69
2023/02/28 11:23:04;;;;;;;22.42;15.00;;;2.60;60.00;;;;;;5074032;28;20223;-69
2023/02/28 11:25:33;;;;;;;17.23;12.57;;;2.60;59.90;;;;;;5074262;28;20231;-68
2023/02/28 11:28:02;;;;;;;17.77;12.05;;;2.60;59.90;;;;;;5074250;28;20196;-69
2023/02/28 11:30:35;;;;;;;19.23;12.48;;;2.60;59.20;;;;;;5073802;28;20194;-69
2023/02/28 11:33:18;;;;;;;19.92;12.45;;;2.60;59.10;;;;;;5074017;28;20279;-69
2023/02/28 11:35:45;;;;;;;17.55;12.57;;;2.50;59.30;;;;;;5073835;28;20252;-69
2023/02/28 11:38:14;;;;;;;19.67;12.07;;;2.60;59.90;;;;;;5072923;28;20280;-69
2023/02/28 11:40:53;;;;;;;20.25;12.95;;;2.50;59.80;;;;;;5073837;28;20228;-68
2023/02/28 11:43:34;;;;;;;18.00;12.98;;;2.50;60.10;;;;;;5073757;28;20659;-69
2023/02/28 11:46:14;;;;;;;15.75;11.02;;;2.40;60.40;;;;;;5073472;28;20285;-68
2023/02/28 11:48:51;;;;;;;18.67;11.95;;;2.30;61.30;;;;;;5074035;28;20232;-68
2023/02/28 11:51:22;;;;;;;15.75;11.55;;;2.30;61.70;;;;;;5073797;28;20628;-68
2023/02/28 11:54:07;;;;;;;17.92;11.65;;;2.40;61.90;;;;;;5073388;28;20194;-69
2023/02/28 11:56:39;;;;;;;17.60;11.95;;;2.50;62.00;;;;;;5073095;28;20299;-68
2023/02/28 11:59:34;;;;;;;15.95;11.55;;;2.50;61.20;;;;;;5073731;28;20283;-69
2023/02/28 12:02:25;;;;;;;18.98;11.80;;;2.50;61.30;;;;;;5073461;28;20509;-68
2023/02/28 12:05:02;;;;;;;14.88;11.05;;;2.60;61.30;;;;;;5073445;28;20200;-68
2023/02/28 12:07:38;;;;;;;17.05;11.40;;;2.70;61.10;;;;;;5073235;28;20212;-68
2023/02/28 12:10:17;;;;;;;17.75;10.38;;;2.70;60.80;;;;;;5073467;28;20185;-68
2023/02/28 12:12:53;;;;;;;14.32;10.93;;;2.80;60.90;;;;;;5073243;28;20195;-69
2023/02/28 12:15:50;;;;;;;16.08;12.07;;;2.80;60.20;;;;;;5073067;28;20286;-69
2023/02/28 12:18:46;;;;;;;18.03;14.80;;;2.80;60.00;;;;;;5072761;28;20832;-69
2023/02/28 12:21:22;;;;;;;15.90;12.30;;;2.90;60.00;;;;;;5073105;28;20468;-69
2023/02/28 12:24:10;;;;;;;17.58;12.23;;;3.00;59.80;;;;;;5073104;28;20228;-69
2023/02/28 12:26:42;;;;;;;16.98;11.45;;;3.10;59.60;;;;;;5073465;28;20286;-69
2023/02/28 12:29:16;;;;;;;15.82;11.68;;;3.10;59.20;;;;;;5073062;28;20194;-69
2023/02/28 12:31:50;;;;;;;16.52;12.95;;;3.10;59.00;;;;;;5073326;28;20246;-69
2023/02/28 12:34:21;;;;;;;15.00;11.65;;;3.10;59.10;;;;;;5073347;28;20603;-69
2023/02/28 12:36:50;;;;;;;15.15;11.38;;;3.20;59.60;;;;;;5072533;28;20664;-69
2023/02/28 12:39:21;;;;;;;17.38;12.63;;;3.20;59.00;;;;;;5072932;28;20289;-69
2023/02/28 12:41:54;;;;;;;15.15;11.68;;;3.20;58.90;;;;;;5073265;28;20229;-69
2023/02/28 12:44:27;;;;;;;18.90;12.75;;;3.20;58.80;;;;;;5072952;28;20194;-69
2023/02/28 12:46:59;;;;;;;15.27;12.32;;;3.20;58.80;;;;;;5072599;28;20284;-69
2023/02/28 12:49:31;;;;;;;19.65;12.32;;;3.20;58.80;;;;;;5072452;28;20453;-69
2023/02/28 12:52:00;;;;;;;20.67;15.35;;;3.20;58.40;;;;;;5072073;28;20435;-69
2023/02/28 12:54:32;;;;;;;17.90;13.15;;;3.20;58.90;;;;;;5072291;28;20275;-69
2023/02/28 12:57:07;;;;;;;16.55;12.30;;;3.20;59.10;;;;;;5072841;28;20249;-69
2023/02/28 12:59:41;;;;;;;16.15;11.98;;;3.30;59.00;;;;;;5072804;28;20272;-69